• Join FlightAware (Why Join?)
  • Login
  • US Flag 
05:55AM EDT


 

Airport Tracker/Info


-or-


 

Live Flight TrackerFlight Track Log ✈ AWE3397 ✈ 18-Apr-2013 ✈ KMHT - KPHL

Flight Track Log - Related Links

Times and Time Zones

All times are in EDT time to prevent confusion due to time zone crossing. See the AWE3397 flight status page for this flight to view local times or setup timezone preferences in your user account.

Time Position Orientation Groundspeed Altitude Reporting Facility
EDT Latitude Longitude Course Direction KTS MPH feet Rate Location/Type
05:47AM 42.9500 -71.4167 270° West 159 183 1,100  Level KA90
05:49AM 43.0064 -71.4008 12° North 240 276 3,400 2,460 Climbing Boston Center
05:50AM 42.9333 -71.7774 270° West  Level FlightAware Approximate
05:50AM 43.0486 -71.4569 316° Northwest 214 246 6,500  Level Boston Center
05:51AM 42.9480 -71.8901 285° West  Level FlightAware Approximate
05:51AM 43.0597 -71.5592 278° West 220 253 10,500  Level Boston Center
05:52AM 42.9500 -72.0052 270° West  Level FlightAware Approximate
05:52AM 43.0561 -71.6531 267° West 255 293 12,900  Level Boston Center
05:53AM 42.9501 -72.1207 270° West  Level FlightAware Approximate
05:53AM 43.0528 -71.7753 268° West 294 338 16,200  Level Boston Center
05:54AM 43.0492 -71.8747 267° West 300 345 18,300 2,280 Climbing Boston Center
05:55AM 43.0478 -72.0025 269° West 305 351 20,800 2,340 Climbing Boston Center
05:56AM 43.0439 -72.1247 268° West 316 364 23,100 2,160 Climbing Boston Center
05:57AM 43.0381 -72.2525 266° West 327 376 25,200 1,440 Climbing Boston Center
05:58AM 43.0381 -72.3806 270° West 333 383 26,000 360 Climbing Boston Center
05:59AM 42.9944 -72.5194 247° West 371 427 26,000  Level Boston Center
06:00AM 42.9506 -72.6414 244° Southwest 385 443 26,000  Level Boston Center
06:01AM 42.9064 -72.7831 247° West 396 456 26,000  Level Boston Center
06:02AM 42.8558 -72.9272 244° Southwest 394 453 26,000  Level Boston Center
06:03AM 42.8114 -73.0742 248° West 407 468 26,000  Level Boston Center
06:04AM 42.7753 -73.1897 247° West 413 475 26,000  Level Boston Center
06:05AM 42.7261 -73.3417 246° West 413 475 26,000  Level Boston Center
06:06AM 42.6811 -73.4794 246° West 413 475 26,000  Level Boston Center
06:07AM 42.6275 -73.6450 246° West 408 470 26,000  Level Boston Center
06:08AM 42.5822 -73.7822 246° West 408 470 26,000  Level Boston Center
06:09AM 42.5344 -73.9194 245° Southwest 402 463 26,000  Level Boston Center
06:10AM 42.4889 -74.0533 245° Southwest 397 457 26,000  Level Boston Center
06:11AM 42.4431 -74.1928 246° West 397 457 26,000  Level Boston Center
06:12AM 42.3972 -74.3294 246° West 397 457 26,000  Level Boston Center
06:13AM 42.3447 -74.4767 244° Southwest 397 457 26,000 -420 Level Boston Center
06:14AM 42.2983 -74.6128 245° Southwest 397 457 25,200 -1,380 Descending Boston Center
06:15AM 42.2542 -74.7403 245° Southwest 397 457 23,300 -1,860 Descending Boston Center
06:16AM 42.1944 -74.9136 245° Southwest 332 382 20,500 -1,440 Descending New York Center
06:17AM 42.1353 -74.9992 227° Southwest 332 382 19,700 -780 Descending New York Center
06:18AM 42.0475 -75.0689 211° Southwest 334 384 19,000 -360 Descending New York Center
06:19AM 41.9681 -75.1336 211° Southwest 339 390 19,000  Level New York Center
06:20AM 41.8886 -75.1981 211° Southwest 339 390 19,000  Level New York Center
06:21AM 41.8158 -75.2572 211° Southwest 339 390 19,000 -360 Level New York Center
06:22AM 41.7361 -75.3214 211° Southwest 339 390 18,300 -1,320 Descending New York Center
06:23AM 41.6503 -75.3875 210° Southwest 339 390 16,400 -1,740 Descending New York Center
06:24AM 41.5750 -75.4517 213° Southwest 333 383 14,800 -1,620 Descending New York Center
06:25AM 41.5083 -75.5025 210° Southwest 328 377 13,200 -1,440 Descending New York Center
06:26AM 41.4331 -75.5636 211° Southwest 323 372 12,000 -660 Descending New York Center
06:27AM 41.3578 -75.6217 210° Southwest 323 372 12,000  Level New York Center
06:28AM 41.2825 -75.6797 210° Southwest 323 372 12,000  Level New York Center
06:29AM 41.1864 -75.6894 184° South 308 354 12,000  Level New York Center
06:30AM 41.0967 -75.6883 179° South 317 365 12,000  Level New York Center
06:31AM 41.0175 -75.6881 180° South 323 372 12,000  Level New York Center
06:32AM 40.9197 -75.6867 179° South 329 379 12,000  Level New York Center
06:33AM 40.8303 -75.6856 179° South 329 379 12,000  Level New York Center
06:34AM 40.7489 -75.6853 180° South 329 379 12,000  Level New York Center
06:35AM 40.6614 -75.6844 180° South 329 379 12,000  Level New York Center
06:36AM 40.5692 -75.6506 164° South 329 379 12,000 60 Level New York Center
06:37AM 40.5364 -75.5994 130° Southeast 323 372 12,100 60 Climbing FAA TRACON SMA TRACON (SMA)
06:37AM 40.5208 -75.5683 123° Southeast 328 377 12,100 -600 Level FAA TRACON SMA TRACON (SMA)
06:37AM 40.5061 -75.5389 123° Southeast 317 365 11,700 -1,500 Descending FAA TRACON SMA TRACON (SMA)
06:38AM 40.4886 -75.5033 123° Southeast 309 356 11,100 -1,800 Descending FAA TRACON SMA TRACON (SMA)
06:38AM 40.4728 -75.4719 124° Southeast 305 351 10,500 -1,500 Descending FAA TRACON SMA TRACON (SMA)
06:38AM 40.4494 -75.4489 143° Southeast 311 358 10,100 -900 Descending FAA TRACON SMA TRACON (SMA)
06:39AM 40.4261 -75.4381 161° South 287 330 9,900 -780 Descending FAA TRACON SMA TRACON (SMA)
06:39AM 40.4019 -75.4411 185° South 291 335 9,600 -900 Descending FAA TRACON SMA TRACON (SMA)
06:39AM 40.3739 -75.4428 183° South 273 314 9,300 -780 Descending FAA TRACON SMA TRACON (SMA)
06:40AM 40.3494 -75.4478 189° South 271 312 9,100 -780 Descending FAA TRACON SMA TRACON (SMA)
06:40AM 40.3272 -75.4503 185° South 269 310 8,800 -960 Descending FAA TRACON SMA TRACON (SMA)
06:40AM 40.3044 -75.4536 186° South 267 307 8,500 -960 Descending FAA TRACON SMA TRACON (SMA)
06:41AM 40.2767 -75.4581 187° South 263 303 8,200 -780 Descending FAA TRACON SMA TRACON (SMA)
06:41AM 40.2550 -75.4611 186° South 259 298 8,000 -780 Descending FAA TRACON SMA TRACON (SMA)
06:41AM 40.2331 -75.4644 187° South 257 296 7,700 -900 Descending FAA TRACON SMA TRACON (SMA)
06:42AM 40.2056 -75.4681 186° South 258 297 7,400 -780 Descending FAA TRACON SMA TRACON (SMA)
06:42AM 40.1839 -75.4708 186° South 257 296 7,200 -780 Descending FAA TRACON SMA TRACON (SMA)
06:42AM 40.1567 -75.4744 186° South 257 296 6,900 -900 Descending FAA TRACON SMA TRACON (SMA)
06:43AM 40.1347 -75.4775 186° South 256 295 6,600 -900 Descending FAA TRACON SMA TRACON (SMA)
06:43AM 40.1103 -75.4808 186° South 255 293 6,300 -780 Descending FAA TRACON SMA TRACON (SMA)
06:43AM 40.0864 -75.4839 186° South 253 291 6,100 -480 Descending FAA TRACON SMA TRACON (SMA)
06:44AM 40.0647 -75.4867 186° South 252 290 6,000 -180 Descending FAA TRACON SMA TRACON (SMA)
06:44AM 40.0439 -75.4897 186° South 247 284 6,000 -360 Level FAA TRACON SMA TRACON (SMA)
06:44AM 40.0200 -75.4928 186° South 231 266 5,800 -900 Descending FAA TRACON SMA TRACON (SMA)
06:45AM 40.0006 -75.4942 183° South 231 266 5,400 -1,200 Descending FAA TRACON SMA TRACON (SMA)
06:45AM 39.9811 -75.4981 189° South 228 262 5,000 -1,500 Descending FAA TRACON SMA TRACON (SMA)
06:45AM 39.9578 -75.5006 185° South 219 252 4,400 -1,500 Descending FAA TRACON SMA TRACON (SMA)
06:46AM 39.9419 -75.4961 168° South 195 224 4,000 -1,200 Descending FAA TRACON SMA TRACON (SMA)
06:46AM 39.9253 -75.4900 164° South 191 220 3,600 -1,200 Descending FAA TRACON SMA TRACON (SMA)
06:46AM 39.9069 -75.4842 166° South 183 211 3,200 -1,200 Descending FAA TRACON SMA TRACON (SMA)
06:47AM 39.8919 -75.4803 169° South 176 203 2,800 -1,080 Descending FAA TRACON SMA TRACON (SMA)
06:47AM 39.8775 -75.4769 170° South 174 200 2,500 -900 Descending FAA TRACON SMA TRACON (SMA)
06:47AM 39.8600 -75.4733 171° South 167 192 2,200 -780 Descending FAA TRACON SMA TRACON (SMA)
06:48AM 39.8467 -75.4708 172° South 162 186 2,000 -300 Descending FAA TRACON SMA TRACON (SMA)
06:48AM 39.8361 -75.4539 129° Southeast 161 185 2,000  Level FAA TRACON SMA TRACON (SMA)
06:48AM 39.8333 -75.4361 101° East 166 191 2,000  Level FAA TRACON SMA TRACON (SMA)
06:49AM 39.8319 -75.4178 96° East 168 193 2,000  Level FAA TRACON SMA TRACON (SMA)
06:49AM 39.8358 -75.3997 74° East 163 188 2,000 -480 Level FAA TRACON SMA TRACON (SMA)
06:49AM 39.8403 -75.3792 74° East 142 163 1,700 -900 Descending FAA TRACON SMA TRACON (SMA)
06:50AM 39.8419 -75.3647 81° East 133 153 1,400 -600 Descending FAA TRACON SMA TRACON (SMA)
06:50AM 39.8453 -75.3525 70° East 117 135 1,300 -600 Descending FAA TRACON SMA TRACON (SMA)
06:51AM 39.8483 -75.3372 75° East 115 132 1,000 -840 Descending FAA TRACON SMA TRACON (SMA)
06:51AM 39.8508 -75.3244 76° East 117 135 800 -660 Descending FAA TRACON SMA TRACON (SMA)
06:51AM 39.8533 -75.3117 76° East 118 136 600 -600 Descending FAA TRACON SMA TRACON (SMA)